createdAt,value
2019-05-23T00:02:43.328Z,72.19
2019-05-23T00:05:37.256Z,72.34
2019-05-23T00:08:13.711Z,72.41
2019-05-23T00:10:45.660Z,72.47
2019-05-23T00:13:31.846Z,72.47
2019-05-23T00:16:01.113Z,72.51
2019-05-23T00:18:30.342Z,72.55
2019-05-23T00:20:58.826Z,72.63
2019-05-23T00:23:27.675Z,72.69
2019-05-23T00:25:56.873Z,72.74
2019-05-23T00:28:25.644Z,72.82
2019-05-23T00:30:58.912Z,72.75
2019-05-23T00:33:29.234Z,72.72
2019-05-23T00:35:59.125Z,72.78
2019-05-23T00:38:27.869Z,72.90
2019-05-23T00:40:56.422Z,72.92
2019-05-23T00:43:25.559Z,72.93
2019-05-23T00:45:54.733Z,72.87
2019-05-23T00:48:24.868Z,72.84
2019-05-23T00:50:54.285Z,72.97
2019-05-23T00:53:23.343Z,73.08
2019-05-23T00:55:52.043Z,73.12
2019-05-23T00:58:20.764Z,73.22
2019-05-23T01:00:51.622Z,73.19
2019-05-23T01:03:21.167Z,73.19
2019-05-23T01:05:49.788Z,73.10
2019-05-23T01:08:18.723Z,73.20
2019-05-23T01:10:48.018Z,73.34
2019-05-23T01:13:16.500Z,73.40
2019-05-23T01:15:45.693Z,73.27
2019-05-23T01:18:15.509Z,73.35
2019-05-23T01:21:08.839Z,73.30
2019-05-23T01:23:39.337Z,73.28
2019-05-23T01:26:08.324Z,73.26
2019-05-23T01:28:37.281Z,73.31
2019-05-23T01:31:08.079Z,73.46
2019-05-23T01:33:37.036Z,73.94
2019-05-23T01:36:05.627Z,73.75
2019-05-23T01:38:34.809Z,73.68
2019-05-23T01:41:03.920Z,73.79
2019-05-23T01:43:32.446Z,73.94
2019-05-23T01:46:00.913Z,73.93
2019-05-23T01:48:29.806Z,74.15
2019-05-23T01:50:58.671Z,74.15
2019-05-23T01:53:27.630Z,74.13
2019-05-23T01:55:56.109Z,74.17
2019-05-23T01:58:24.575Z,74.08
2019-05-23T02:00:53.604Z,73.99
2019-05-23T02:03:22.372Z,74.15
2019-05-23T02:05:51.111Z,74.31
2019-05-23T02:08:19.591Z,74.30
2019-05-23T02:10:48.679Z,74.26
2019-05-23T02:13:17.943Z,74.30
2019-05-23T02:15:46.898Z,74.30
2019-05-23T02:18:15.391Z,74.36
2019-05-23T02:20:44.530Z,74.21
2019-05-23T02:23:13.431Z,74.10
2019-05-23T02:25:42.547Z,73.98
2019-05-23T02:28:11.160Z,74.10
2019-05-23T02:30:40.220Z,74.25
2019-05-23T02:33:09.160Z,74.12
2019-05-23T02:35:38.196Z,74.08
2019-05-23T02:38:31.353Z,74.03
2019-05-23T02:41:05.388Z,74.00
2019-05-23T02:43:34.157Z,74.12
2019-05-23T02:46:05.800Z,74.20
2019-05-23T02:48:39.264Z,74.11
2019-05-23T02:51:12.749Z,74.05
2019-05-23T02:53:41.353Z,74.11
2019-05-23T02:56:11.615Z,74.25
2019-05-23T02:58:52.082Z,74.28
2019-05-23T03:01:29.948Z,74.39
2019-05-23T03:04:01.562Z,74.47
2019-05-23T03:06:30.361Z,74.30
2019-05-23T03:08:59.476Z,74.43
2019-05-23T03:11:38.906Z,74.59
2019-05-23T03:14:09.215Z,74.80
2019-05-23T03:16:39.440Z,74.63
2019-05-23T03:19:14.021Z,74.78
2019-05-23T03:21:44.534Z,74.81
2019-05-23T04:30:47.325Z,75.16
2019-05-23T04:33:15.840Z,75.25
2019-05-23T04:35:44.318Z,74.87
2019-05-23T04:38:12.801Z,75.24
2019-05-23T04:40:41.612Z,75.37
2019-05-23T04:43:10.099Z,75.24
2019-05-23T04:45:39.877Z,76.04
2019-05-23T04:48:08.746Z,75.58
2019-05-23T04:50:37.228Z,75.26
2019-05-23T04:53:06.546Z,75.23
2019-05-23T04:55:36.296Z,75.50
2019-05-23T04:58:05.283Z,75.10
2019-05-23T05:00:34.160Z,75.24
2019-05-23T05:03:02.644Z,75.06
2019-05-23T05:05:31.392Z,75.00
2019-05-23T05:07:59.831Z,75.10
2019-05-23T05:10:28.998Z,75.12
2019-05-23T05:12:57.464Z,75.01
2019-05-23T05:15:26.162Z,75.13
2019-05-23T05:17:54.650Z,75.41
2019-05-23T05:20:23.286Z,75.31
2019-05-23T05:22:52.317Z,75.26
2019-05-23T05:25:21.294Z,75.29
2019-05-23T05:27:50.003Z,75.32
2019-05-23T05:30:18.744Z,75.24
2019-05-23T05:32:47.880Z,74.98
2019-05-23T05:35:16.554Z,75.06
2019-05-23T05:37:45.008Z,75.01
2019-05-23T05:40:14.502Z,74.96
2019-05-23T05:42:43.977Z,74.80
2019-05-23T05:45:12.947Z,74.81
2019-05-23T05:47:41.852Z,74.84
2019-05-23T05:50:10.791Z,74.68
2019-05-23T05:52:40.127Z,74.44
2019-05-23T05:55:08.815Z,74.39
2019-05-23T05:57:40.758Z,74.10
2019-05-23T06:00:13.062Z,73.82
2019-05-23T06:02:42.611Z,73.55
2019-05-23T06:05:14.967Z,73.42
2019-05-23T06:07:43.483Z,73.14
2019-05-23T06:10:16.493Z,73.17
2019-05-23T06:12:45.273Z,73.06
2019-05-23T06:15:14.063Z,73.04
2019-05-23T06:17:42.727Z,72.96
2019-05-23T06:20:11.572Z,72.39
2019-05-23T06:22:40.574Z,72.53
2019-05-23T06:25:10.547Z,72.26
2019-05-23T06:27:40.201Z,71.86
2019-05-23T06:30:11.412Z,71.56
2019-05-23T06:32:40.146Z,71.62
2019-05-23T06:35:08.725Z,71.16
2019-05-23T06:37:37.482Z,71.22
2019-05-23T06:40:06.505Z,71.08
2019-05-23T06:42:35.263Z,71.13
2019-05-23T06:45:05.866Z,70.43
2019-05-23T06:47:34.407Z,70.01
2019-05-23T06:50:02.901Z,69.58
2019-05-23T06:52:31.385Z,69.03
2019-05-23T06:55:00.017Z,69.63
2019-05-23T06:57:28.634Z,68.89
2019-05-23T06:59:57.129Z,68.00
2019-05-23T07:02:25.705Z,68.25
2019-05-23T07:04:54.181Z,68.07
2019-05-23T07:07:23.473Z,67.43
2019-05-23T07:09:52.016Z,67.59
2019-05-23T07:12:20.825Z,67.68
2019-05-23T07:14:49.320Z,67.81
2019-05-23T07:17:19.503Z,68.18
2019-05-23T07:19:47.954Z,67.37
2019-05-23T07:22:18.894Z,67.02
2019-05-23T07:24:57.582Z,66.04
2019-05-23T07:27:17.304Z,64.26
2019-05-23T07:29:46.013Z,64.16
2019-05-23T07:32:14.977Z,64.21
2019-05-23T07:34:43.458Z,64.28
2019-05-23T07:37:11.929Z,64.59
2019-05-23T07:39:40.721Z,64.89
2019-05-23T07:42:11.027Z,63.12
2019-05-23T07:44:48.199Z,62.32
2019-05-23T07:47:13.143Z,62.48
2019-05-23T07:49:41.951Z,59.93
2019-05-23T07:52:10.417Z,62.22
2019-05-23T07:54:48.088Z,62.81
2019-05-23T07:57:17.205Z,62.67
2019-05-23T07:59:46.164Z,63.13
2019-05-23T08:02:25.982Z,62.31
2019-05-23T08:04:55.013Z,61.65
2019-05-23T08:07:23.588Z,62.56
2019-05-23T08:09:52.167Z,61.85
2019-05-23T08:12:20.721Z,61.60
2019-05-23T08:14:49.179Z,61.56
2019-05-23T08:17:18.044Z,61.95
2019-05-23T08:19:49.505Z,60.95
2019-05-23T08:22:16.713Z,60.83
2019-05-23T08:24:45.537Z,61.47
2019-05-23T08:27:14.348Z,60.28
2019-05-23T08:29:45.186Z,60.97
2019-05-23T08:32:13.772Z,61.05
2019-05-23T08:34:43.008Z,60.28
2019-05-23T08:37:12.390Z,60.84
2019-05-23T08:39:41.597Z,60.29
2019-05-23T08:42:10.512Z,60.47
2019-05-23T08:44:38.989Z,60.51
2019-05-23T08:47:09.577Z,60.78
2019-05-23T08:49:38.170Z,60.29
2019-05-23T08:52:06.670Z,58.57
2019-05-23T08:54:35.539Z,60.12
2019-05-23T08:57:05.414Z,59.97
2019-05-23T08:59:33.980Z,59.84
2019-05-23T09:02:03.066Z,60.36
2019-05-23T09:04:31.564Z,60.23
2019-05-23T09:07:00.428Z,59.65
2019-05-23T09:09:30.380Z,59.66
2019-05-23T09:11:59.144Z,59.51
2019-05-23T09:14:28.111Z,59.41
2019-05-23T09:16:56.605Z,58.54
2019-05-23T09:19:25.086Z,59.30
2019-05-23T09:21:57.866Z,59.61
2019-05-23T09:24:23.984Z,58.94
2019-05-23T09:26:52.740Z,58.12
2019-05-23T09:29:21.562Z,58.26
2019-05-23T09:31:50.260Z,58.53
2019-05-23T09:34:18.755Z,57.84
2019-05-23T09:36:47.416Z,57.63
2019-05-23T09:39:17.531Z,57.40
2019-05-23T09:41:46.768Z,57.49
2019-05-23T09:44:15.251Z,57.84
2019-05-23T09:46:43.782Z,57.98
2019-05-23T09:49:12.290Z,57.89
2019-05-23T09:51:40.771Z,57.42
2019-05-23T09:54:09.249Z,56.93
2019-05-23T09:56:38.498Z,56.73
2019-05-23T09:59:07.229Z,56.44
2019-05-23T10:01:35.713Z,56.12
2019-05-23T10:04:04.182Z,56.35
2019-05-23T10:06:32.646Z,56.80
2019-05-23T10:09:01.122Z,55.85
2019-05-23T10:11:29.617Z,55.96
2019-05-23T10:13:58.423Z,55.54
2019-05-23T10:16:26.899Z,55.92
2019-05-23T10:18:55.389Z,55.43
2019-05-23T10:21:24.244Z,54.97
2019-05-23T10:23:52.955Z,54.29
2019-05-23T10:26:21.462Z,54.63
2019-05-23T10:28:49.933Z,54.37
2019-05-23T10:31:18.739Z,54.34
2019-05-23T10:33:47.252Z,54.26
2019-05-23T10:36:15.758Z,54.93
2019-05-23T10:38:44.228Z,54.75
2019-05-23T10:41:12.836Z,54.78
2019-05-23T10:43:41.658Z,53.98
2019-05-23T10:46:10.257Z,54.11
2019-05-23T10:48:39.712Z,53.86
2019-05-23T10:51:08.279Z,54.00
2019-05-23T10:53:36.793Z,53.62
2019-05-23T10:56:05.240Z,53.68
2019-05-23T10:58:33.944Z,53.97
2019-05-23T11:01:02.908Z,53.47
2019-05-23T11:03:31.705Z,53.44
2019-05-23T11:06:14.704Z,52.46
2019-05-23T11:08:32.319Z,52.32
2019-05-23T11:11:01.056Z,52.52
2019-05-23T11:13:29.654Z,51.87
2019-05-23T11:15:58.131Z,52.44
2019-05-23T11:18:26.613Z,52.62
2019-05-23T11:20:55.159Z,52.83
2019-05-23T11:23:30.613Z,52.94
2019-05-23T11:26:01.404Z,52.67
2019-05-23T11:28:31.028Z,52.30
2019-05-23T11:31:00.998Z,51.05
2019-05-23T11:33:29.521Z,51.10
2019-05-23T11:35:58.089Z,51.84
2019-05-23T11:38:27.485Z,51.04
2019-05-23T11:40:55.972Z,50.72
2019-05-23T11:43:24.454Z,50.83
2019-05-23T11:45:59.660Z,50.85
2019-05-23T11:48:28.455Z,50.83
2019-05-23T11:50:56.936Z,50.40
2019-05-23T11:53:25.676Z,50.22
2019-05-23T11:55:54.794Z,49.66
2019-05-23T11:58:23.450Z,49.90
2019-05-23T12:01:21.301Z,49.58
2019-05-23T12:03:51.866Z,50.14
2019-05-23T12:06:20.446Z,49.89
2019-05-23T12:08:48.977Z,50.32
2019-05-23T12:11:17.975Z,49.52
2019-05-23T12:13:46.488Z,48.84
2019-05-23T12:16:14.966Z,49.31
2019-05-23T12:18:43.448Z,49.05
2019-05-23T12:21:11.939Z,49.01
2019-05-23T12:23:40.403Z,49.29
2019-05-23T12:26:08.886Z,48.61
2019-05-23T12:28:37.694Z,48.96
2019-05-23T12:31:07.773Z,49.23
2019-05-23T12:33:36.247Z,49.38
2019-05-23T12:36:05.409Z,48.62
2019-05-23T12:38:33.888Z,48.39
2019-05-23T12:41:04.590Z,48.51
2019-05-23T12:43:33.058Z,48.33
2019-05-23T12:46:01.877Z,47.11
2019-05-23T12:48:48.782Z,47.56
2019-05-23T12:51:19.673Z,47.18
2019-05-23T12:53:48.384Z,45.89
2019-05-23T12:56:16.896Z,46.38
2019-05-23T12:58:46.361Z,46.52
2019-05-23T13:01:16.250Z,46.35
2019-05-23T13:03:45.136Z,46.63
2019-05-23T13:06:13.655Z,46.37
2019-05-23T13:08:42.220Z,45.37
2019-05-23T13:11:10.691Z,46.10
2019-05-23T13:13:39.180Z,46.49
2019-05-23T13:16:07.674Z,45.94
2019-05-23T13:18:36.169Z,45.57
2019-05-23T13:21:04.910Z,45.65
2019-05-23T13:23:34.128Z,45.36
2019-05-23T13:26:02.599Z,45.39
2019-05-23T13:28:31.154Z,45.18
2019-05-23T13:30:59.655Z,45.41
2019-05-23T13:33:28.355Z,45.11
2019-05-23T13:35:57.142Z,44.92
2019-05-23T13:38:26.161Z,44.27
2019-05-23T13:40:54.641Z,44.30
2019-05-23T13:43:23.487Z,44.06
2019-05-23T13:45:52.046Z,44.74
2019-05-23T13:48:20.557Z,44.58
2019-05-23T13:50:49.048Z,44.71
2019-05-23T13:53:17.529Z,43.56
2019-05-23T13:55:46.109Z,44.43
2019-05-23T13:58:15.281Z,44.55
2019-05-23T14:00:44.574Z,43.92
2019-05-23T14:03:13.760Z,43.96
2019-05-23T14:05:42.274Z,43.66
2019-05-23T14:08:13.077Z,43.76
2019-05-23T14:10:41.056Z,44.07
2019-05-23T14:13:09.670Z,43.98
2019-05-23T14:15:41.220Z,43.69
2019-05-23T14:18:09.972Z,43.46
2019-05-23T14:20:38.730Z,43.17
2019-05-23T14:23:16.071Z,43.66
2019-05-23T14:25:44.939Z,43.59
2019-05-23T14:28:13.623Z,43.46
2019-05-23T14:31:02.064Z,43.60
2019-05-23T14:33:55.469Z,44.01
2019-05-23T14:36:33.090Z,43.65
2019-05-23T14:39:01.567Z,42.94
2019-05-23T14:41:45.443Z,42.66
2019-05-23T14:44:09.700Z,42.22
2019-05-23T14:46:45.021Z,42.14
2019-05-23T14:49:21.210Z,42.81
2019-05-23T14:52:05.315Z,42.69
2019-05-23T14:54:42.793Z,43.26
2019-05-23T14:57:11.521Z,42.87
2019-05-23T14:59:40.432Z,42.06
2019-05-23T15:02:14.838Z,42.74
2019-05-23T15:04:43.325Z,41.74
2019-05-23T15:07:11.799Z,41.50
2019-05-23T15:09:40.531Z,41.44
2019-05-23T15:12:09.031Z,41.23
2019-05-23T15:14:37.526Z,41.12
2019-05-23T15:17:06.413Z,40.73
2019-05-23T15:19:44.074Z,40.63
2019-05-23T15:22:05.088Z,40.97
2019-05-23T15:24:33.891Z,40.77
2019-05-23T15:27:02.384Z,40.83
2019-05-23T15:29:30.905Z,40.56
2019-05-23T15:32:02.812Z,40.30
2019-05-23T15:34:30.055Z,40.39
2019-05-23T15:36:58.533Z,40.40
2019-05-23T15:39:27.342Z,40.40
2019-05-23T15:41:55.828Z,39.04
2019-05-23T15:44:28.555Z,39.61
2019-05-23T15:46:54.528Z,38.61
2019-05-23T15:49:23.008Z,38.57
2019-05-23T15:52:04.419Z,38.23
2019-05-23T15:57:22.960Z,38.12
2019-05-23T16:00:16.759Z,38.22
2019-05-23T16:02:53.238Z,37.81
2019-05-23T16:05:22.191Z,37.77
2019-05-23T16:07:50.831Z,38.01
2019-05-23T16:10:20.448Z,38.06
2019-05-23T16:12:49.016Z,37.55
2019-05-23T16:15:18.519Z,37.16
2019-05-23T16:17:47.296Z,37.39
2019-05-23T16:20:15.787Z,37.18
2019-05-23T16:22:44.555Z,36.05
2019-05-23T16:25:13.038Z,36.98
2019-05-23T16:27:41.771Z,37.23
2019-05-23T16:30:10.272Z,36.76
2019-05-23T16:32:38.750Z,36.64
2019-05-23T16:35:07.341Z,36.27
2019-05-23T16:37:35.826Z,36.89
2019-05-23T16:40:04.637Z,36.62
2019-05-23T16:42:33.352Z,36.47
2019-05-23T16:45:01.917Z,36.99
2019-05-23T16:47:31.002Z,36.78
2019-05-23T16:49:59.497Z,36.70
2019-05-23T16:52:28.010Z,36.80
2019-05-23T16:54:57.762Z,36.58
2019-05-23T16:57:35.991Z,36.55
2019-05-23T17:00:24.229Z,36.38
2019-05-23T17:03:10.617Z,36.38
2019-05-23T17:05:48.061Z,36.03
2019-05-23T17:08:38.426Z,36.22
2019-05-23T17:11:17.216Z,36.01
2019-05-23T17:13:49.515Z,36.11
2019-05-23T17:16:40.174Z,35.66
2019-05-23T17:19:30.472Z,35.94
2019-05-23T17:22:07.337Z,35.87
2019-05-23T17:24:57.903Z,35.77
2019-05-23T17:28:03.500Z,36.00
2019-05-23T17:30:38.103Z,35.68
2019-05-23T17:33:07.653Z,35.58
2019-05-23T17:35:36.528Z,35.69
2019-05-23T17:38:05.024Z,35.69
2019-05-23T17:40:34.247Z,35.54
2019-05-23T17:43:02.770Z,35.79
2019-05-23T17:45:31.528Z,35.99
2019-05-23T17:48:00.709Z,36.03
2019-05-23T17:50:29.361Z,35.78
2019-05-23T17:52:57.880Z,36.04
2019-05-23T17:55:28.039Z,36.10
2019-05-23T17:57:57.008Z,36.30
2019-05-23T18:00:30.066Z,36.40
2019-05-23T18:02:58.880Z,36.38
2019-05-23T18:05:27.667Z,36.55
2019-05-23T18:07:56.229Z,36.57
2019-05-23T18:10:43.330Z,36.50
2019-05-23T18:12:55.919Z,36.42
2019-05-23T18:15:25.459Z,36.64
2019-05-23T18:17:58.640Z,36.72
2019-05-23T18:20:26.490Z,36.70
2019-05-23T18:22:55.036Z,36.68
2019-05-23T18:25:23.796Z,36.76
2019-05-23T18:27:52.342Z,36.80
2019-05-23T18:30:27.184Z,36.81
2019-05-23T18:32:56.055Z,36.91
2019-05-23T18:35:25.279Z,36.94
2019-05-23T18:37:53.749Z,36.89
2019-05-23T18:40:22.247Z,36.98
2019-05-23T18:42:50.822Z,37.00
2019-05-23T18:45:20.598Z,37.06
2019-05-23T18:47:49.331Z,37.14
2019-05-23T18:50:18.785Z,37.22
2019-05-23T18:52:47.304Z,37.26
2019-05-23T18:55:16.269Z,37.30
2019-05-23T18:57:45.085Z,37.36
2019-05-23T19:00:14.909Z,37.52
2019-05-23T19:02:43.392Z,37.62
2019-05-23T19:05:13.413Z,37.63
2019-05-23T19:07:41.884Z,37.89
2019-05-23T19:10:11.425Z,38.13
2019-05-23T19:12:41.517Z,38.30
2019-05-23T19:15:10.091Z,38.53
2019-05-23T19:17:38.559Z,38.69
2019-05-23T19:20:07.403Z,39.07
2019-05-23T19:22:35.944Z,39.24
2019-05-23T19:25:05.188Z,39.64
2019-05-23T19:27:33.676Z,40.00
2019-05-23T19:30:02.245Z,40.22
2019-05-23T19:32:30.987Z,40.37
2019-05-23T19:34:59.455Z,40.55
2019-05-23T19:37:28.190Z,40.60
2019-05-23T19:39:56.893Z,40.49
2019-05-23T19:42:25.547Z,40.47
2019-05-23T19:44:54.034Z,40.63
2019-05-23T19:47:22.495Z,40.85
2019-05-23T19:49:50.994Z,41.20
2019-05-23T19:52:20.083Z,41.51
2019-05-23T19:54:48.825Z,41.83
2019-05-23T19:57:17.372Z,42.14
2019-05-23T19:59:45.855Z,42.30
2019-05-23T20:02:42.456Z,42.49
2019-05-23T20:05:16.779Z,42.69
2019-05-23T20:07:45.338Z,42.95
2019-05-23T20:10:14.197Z,42.95
2019-05-23T20:12:43.072Z,43.26
2019-05-23T20:15:11.587Z,43.37
2019-05-23T20:17:40.066Z,43.42
2019-05-23T20:20:08.649Z,43.65
2019-05-23T20:22:37.131Z,43.79
2019-05-23T20:25:05.740Z,43.81
2019-05-23T20:27:34.859Z,43.95
2019-05-23T20:30:03.431Z,44.23
2019-05-23T20:32:32.169Z,44.23
2019-05-23T20:35:00.921Z,44.56
2019-05-23T20:37:35.138Z,44.71
2019-05-23T20:40:02.139Z,44.78
2019-05-23T20:42:30.885Z,44.93
2019-05-23T20:44:59.363Z,44.96
2019-05-23T20:47:28.882Z,45.12
2019-05-23T20:49:57.337Z,45.34
2019-05-23T20:52:25.830Z,45.42
2019-05-23T20:54:54.318Z,45.59
2019-05-23T20:57:22.790Z,45.76
2019-05-23T20:59:51.293Z,45.97
2019-05-23T21:02:20.024Z,46.09
2019-05-23T21:04:48.537Z,46.19
2019-05-23T21:07:17.054Z,46.41
2019-05-23T21:09:45.569Z,46.58
2019-05-23T21:12:28.725Z,46.67
2019-05-23T21:14:44.341Z,46.78
2019-05-23T21:17:12.820Z,47.01
2019-05-23T21:19:41.317Z,47.23
2019-05-23T21:22:09.805Z,47.41
2019-05-23T21:24:38.260Z,47.62
2019-05-23T21:27:06.757Z,47.70
2019-05-23T21:29:35.242Z,47.78
2019-05-23T21:32:03.716Z,47.83
2019-05-23T21:34:32.183Z,47.97
2019-05-23T21:37:00.701Z,47.97
2019-05-23T21:39:29.240Z,48.00
2019-05-23T21:41:58.030Z,48.26
2019-05-23T21:44:26.513Z,48.32
2019-05-23T21:46:55.024Z,48.41
2019-05-23T21:49:23.518Z,48.51
2019-05-23T21:51:52.098Z,48.64
2019-05-23T21:54:20.592Z,48.76
2019-05-23T21:56:49.065Z,48.88
2019-05-23T21:59:17.537Z,48.96
2019-05-23T22:01:54.116Z,49.06
2019-05-23T22:04:38.864Z,49.42
2019-05-23T22:07:08.391Z,49.61
2019-05-23T22:09:37.136Z,49.47
2019-05-23T22:12:08.429Z,49.26
2019-05-23T22:14:37.710Z,48.77
2019-05-23T22:17:06.261Z,48.59
2019-05-23T22:19:35.303Z,48.92
2019-05-23T22:22:04.065Z,49.34
2019-05-23T22:24:32.577Z,49.61
2019-05-23T22:27:01.064Z,49.44
2019-05-23T22:29:29.580Z,49.72
2019-05-23T22:31:58.411Z,50.00
2019-05-23T22:34:44.100Z,50.12
2019-05-23T22:37:18.061Z,50.10
2019-05-23T22:39:46.562Z,50.43
2019-05-23T22:42:15.662Z,50.73
2019-05-23T22:44:44.191Z,50.70
2019-05-23T22:47:12.632Z,50.71
2019-05-23T22:49:41.125Z,51.01
2019-05-23T22:52:09.604Z,51.42
2019-05-23T22:54:38.481Z,51.49
2019-05-23T22:57:06.950Z,51.62
2019-05-23T22:59:35.544Z,51.85
2019-05-23T23:02:05.676Z,51.79
2019-05-23T23:04:34.173Z,51.86
2019-05-23T23:07:02.644Z,51.95
2019-05-23T23:09:31.142Z,52.05
2019-05-23T23:11:59.917Z,52.13
2019-05-23T23:14:28.530Z,52.49
2019-05-23T23:16:57.017Z,52.83
2019-05-23T23:19:25.820Z,52.84
2019-05-23T23:21:54.324Z,52.93
2019-05-23T23:24:22.799Z,52.97
2019-05-23T23:26:51.381Z,53.16
2019-05-23T23:29:19.858Z,53.25
2019-05-23T23:31:48.323Z,53.08
2019-05-23T23:34:16.786Z,53.14
2019-05-23T23:36:45.249Z,53.59
2019-05-23T23:39:13.732Z,53.80
2019-05-23T23:41:42.569Z,53.82
2019-05-23T23:44:11.413Z,53.83
2019-05-23T23:46:57.653Z,54.04
2019-05-23T23:49:44.139Z,54.18
2019-05-23T23:52:30.418Z,54.05
2019-05-23T23:55:16.862Z,54.13
2019-05-23T23:57:59.802Z,54.08
